createdAt,value
2023-02-04T00:00:27.353Z,95.22
2023-02-04T00:05:49.999Z,95.03
2023-02-04T00:10:52.659Z,95.10
2023-02-04T00:15:55.329Z,94.87
2023-02-04T00:20:58.030Z,94.83
2023-02-04T00:26:00.654Z,94.84
2023-02-04T00:31:03.423Z,94.79
2023-02-04T00:36:06.422Z,94.76
2023-02-04T00:41:09.585Z,94.74
2023-02-04T00:46:12.290Z,95.02
2023-02-04T00:51:15.270Z,95.14
2023-02-04T00:56:17.905Z,95.24
2023-02-04T01:01:20.614Z,95.01
2023-02-04T01:06:23.312Z,94.90
2023-02-04T01:11:26.065Z,94.62
2023-02-04T01:16:28.854Z,94.17
2023-02-04T01:21:31.602Z,93.72
2023-02-04T01:26:34.198Z,93.46
2023-02-04T01:31:36.861Z,93.48
2023-02-04T01:36:39.464Z,93.69
2023-02-04T01:41:42.259Z,93.70
2023-02-04T01:46:44.861Z,93.87
2023-02-04T01:51:47.908Z,94.03
2023-02-04T01:56:51.626Z,94.11
2023-02-04T02:01:54.973Z,94.17
2023-02-04T02:07:03.398Z,94.53
2023-02-04T02:12:06.197Z,94.79
2023-02-04T02:17:08.828Z,94.84
2023-02-04T02:22:20.960Z,94.34
2023-02-04T02:27:24.136Z,93.80
2023-02-04T02:32:26.916Z,93.51
2023-02-04T02:37:30.177Z,93.05
2023-02-04T02:42:33.246Z,92.76
2023-02-04T02:47:35.911Z,92.58
2023-02-04T02:52:38.494Z,92.29
2023-02-04T02:57:41.101Z,92.41
2023-02-04T03:02:48.686Z,92.29
2023-02-04T03:07:51.574Z,92.08
2023-02-04T03:12:54.254Z,92.09
2023-02-04T03:17:57.565Z,92.09
2023-02-04T03:23:00.527Z,91.80
2023-02-04T03:28:03.925Z,91.64
2023-02-04T03:33:06.636Z,91.51
2023-02-04T03:38:09.243Z,91.28
2023-02-04T03:43:11.923Z,91.17
2023-02-04T03:48:14.617Z,91.04
2023-02-04T03:53:17.328Z,91.00
2023-02-04T03:58:20.121Z,90.98
2023-02-04T04:03:22.928Z,91.06
2023-02-04T04:08:25.742Z,91.07
2023-02-04T04:13:28.424Z,91.03
2023-02-04T04:18:32.724Z,90.82
2023-02-04T04:23:35.383Z,90.70
2023-02-04T04:28:37.961Z,90.77
2023-02-04T04:33:40.803Z,90.73
2023-02-04T04:38:43.392Z,90.91
2023-02-04T04:43:46.053Z,90.95
2023-02-04T04:48:48.976Z,91.19
2023-02-04T04:53:51.739Z,91.22
2023-02-04T04:58:54.383Z,91.42
2023-02-04T05:03:57.043Z,91.52
2023-02-04T05:08:59.664Z,91.39
2023-02-04T05:14:02.337Z,91.60
2023-02-04T05:19:05.005Z,91.68
2023-02-04T05:24:08.122Z,91.79
2023-02-04T05:29:11.277Z,92.05
2023-02-04T05:34:13.890Z,92.07
2023-02-04T05:39:16.536Z,92.38
2023-02-04T05:44:19.177Z,92.74
2023-02-04T05:49:22.229Z,93.06
2023-02-04T05:54:26.050Z,93.17
2023-02-04T05:59:28.655Z,93.08
2023-02-04T06:04:31.330Z,93.10
2023-02-04T06:09:33.957Z,93.21
2023-02-04T06:14:36.739Z,93.28
2023-02-04T06:19:39.315Z,93.09
2023-02-04T06:24:41.936Z,92.87
2023-02-04T06:29:44.530Z,92.69
2023-02-04T06:34:47.414Z,92.39
2023-02-04T06:39:50.068Z,92.35
2023-02-04T06:44:53.597Z,92.18
2023-02-04T06:49:56.225Z,92.27
2023-02-04T06:54:58.859Z,92.32
2023-02-04T07:00:01.659Z,91.88
2023-02-04T07:05:06.079Z,91.66
2023-02-04T07:10:09.475Z,91.73
2023-02-04T07:15:12.618Z,91.59
2023-02-04T07:20:15.445Z,91.76
2023-02-04T07:25:18.068Z,91.81
2023-02-04T07:30:20.855Z,91.21
2023-02-04T07:35:24.229Z,91.08
2023-02-04T07:40:26.818Z,91.24
2023-02-04T07:45:29.482Z,90.70
2023-02-04T07:50:32.430Z,90.30
2023-02-04T07:55:35.365Z,90.07
2023-02-04T08:00:40.048Z,89.95
2023-02-04T08:05:42.729Z,89.30
2023-02-04T08:10:45.745Z,89.13
2023-02-04T08:15:48.456Z,88.35
2023-02-04T08:20:51.635Z,87.75
2023-02-04T08:25:54.222Z,88.14
2023-02-04T08:30:56.889Z,88.44
2023-02-04T08:36:01.085Z,88.32
2023-02-04T08:41:03.867Z,88.06
2023-02-04T08:46:06.738Z,87.99
2023-02-04T08:51:09.382Z,87.82
2023-02-04T08:56:16.551Z,87.92
2023-02-04T09:01:21.020Z,87.07
2023-02-04T09:06:24.876Z,86.08
2023-02-04T09:11:27.870Z,86.75
2023-02-04T09:16:31.127Z,85.25
2023-02-04T09:21:33.886Z,84.22
2023-02-04T09:26:36.559Z,83.79
2023-02-04T09:31:39.269Z,83.58
2023-02-04T09:36:41.978Z,80.55
2023-02-04T09:41:44.674Z,80.92
2023-02-04T09:46:51.132Z,81.06
2023-02-04T09:51:55.052Z,80.38
2023-02-04T09:56:59.360Z,80.91
2023-02-04T10:02:12.419Z,79.97
2023-02-04T10:07:22.037Z,79.99
2023-02-04T10:12:25.028Z,79.29
2023-02-04T10:17:29.084Z,78.47
2023-02-04T10:22:34.750Z,78.33
2023-02-04T10:27:50.841Z,79.16
2023-02-04T10:32:54.510Z,77.86
2023-02-04T10:38:15.979Z,76.79
2023-02-04T10:43:23.606Z,76.29
2023-02-04T10:48:30.169Z,76.68
2023-02-04T10:53:51.795Z,76.23
2023-02-04T10:58:54.444Z,74.76
2023-02-04T11:03:57.066Z,74.79
2023-02-04T11:08:59.832Z,72.96
2023-02-04T11:14:04.200Z,71.64
2023-02-04T11:19:12.090Z,71.47
2023-02-04T11:24:14.637Z,72.94
2023-02-04T11:29:31.124Z,73.99
2023-02-04T11:34:46.871Z,72.26
2023-02-04T11:39:52.425Z,72.66
2023-02-04T11:44:59.906Z,73.02
2023-02-04T11:50:15.029Z,72.86
2023-02-04T11:55:19.212Z,70.86
2023-02-04T12:00:29.204Z,69.61
2023-02-04T12:05:51.404Z,69.74
2023-02-04T12:11:07.592Z,69.63
2023-02-04T12:16:10.477Z,70.37
2023-02-04T12:21:14.445Z,71.18
2023-02-04T12:26:17.167Z,70.99
2023-02-04T12:31:19.907Z,70.43
2023-02-04T12:36:22.850Z,70.28
2023-02-04T12:41:26.718Z,70.12
2023-02-04T12:46:30.091Z,69.58
2023-02-04T12:51:33.207Z,69.36
2023-02-04T12:56:35.829Z,69.42
2023-02-04T13:01:38.996Z,68.66
2023-02-04T13:06:41.882Z,69.81
2023-02-04T13:11:44.764Z,69.93
2023-02-04T13:16:47.337Z,69.98
2023-02-04T13:21:50.004Z,69.83
2023-02-04T13:26:52.611Z,68.75
2023-02-04T13:31:58.032Z,68.60
2023-02-04T13:37:00.694Z,67.98
2023-02-04T13:42:04.546Z,68.48
2023-02-04T13:47:07.566Z,69.13
2023-02-04T13:52:10.220Z,69.89
2023-02-04T13:57:12.964Z,69.98
2023-02-04T14:02:15.884Z,72.47
2023-02-04T14:07:18.568Z,75.92
2023-02-04T14:12:21.281Z,77.04
2023-02-04T14:17:24.037Z,77.93
2023-02-04T14:22:26.674Z,78.42
2023-02-04T14:27:29.741Z,78.62
2023-02-04T14:32:32.315Z,78.99
2023-02-04T14:37:34.920Z,79.34
2023-02-04T14:42:38.593Z,77.97
2023-02-04T14:47:42.055Z,76.68
2023-02-04T14:52:44.685Z,76.28
2023-02-04T14:57:47.322Z,76.99
2023-02-04T15:02:49.983Z,77.73
2023-02-04T15:07:55.121Z,78.78
2023-02-04T15:12:58.001Z,79.50
2023-02-04T15:18:00.845Z,80.51
2023-02-04T15:23:03.734Z,81.56
2023-02-04T15:28:07.420Z,82.32
2023-02-04T15:33:13.004Z,82.82
2023-02-04T15:38:15.752Z,83.05
2023-02-04T15:43:19.535Z,83.51
2023-02-04T15:48:24.119Z,83.92
2023-02-04T15:53:26.833Z,84.14
2023-02-04T15:58:30.379Z,84.41
2023-02-04T16:03:33.062Z,84.45
2023-02-04T16:08:35.703Z,84.51
2023-02-04T16:13:38.789Z,84.70
2023-02-04T16:18:41.436Z,84.52
2023-02-04T16:23:44.369Z,84.42
2023-02-04T16:28:48.300Z,84.30
2023-02-04T16:33:50.944Z,84.40
2023-02-04T16:38:53.496Z,84.82
2023-02-04T16:43:56.226Z,84.74
2023-02-04T16:48:59.269Z,84.69
2023-02-04T16:54:01.983Z,84.49
2023-02-04T16:59:04.737Z,84.62
2023-02-04T17:04:07.345Z,84.34
2023-02-04T17:09:10.078Z,84.27
2023-02-04T17:14:16.656Z,84.56
2023-02-04T17:19:21.038Z,84.52
2023-02-04T17:24:24.577Z,84.62
2023-02-04T17:29:27.312Z,84.84
2023-02-04T17:34:30.611Z,85.04
2023-02-04T17:39:34.394Z,85.15
2023-02-04T17:44:36.970Z,85.29
2023-02-04T17:49:39.684Z,85.35
2023-02-04T17:54:42.364Z,85.76
2023-02-04T17:59:45.361Z,85.87
2023-02-04T18:04:48.187Z,86.04
2023-02-04T18:09:51.209Z,85.77
2023-02-04T18:14:53.808Z,85.64
2023-02-04T18:19:58.722Z,85.68
2023-02-04T18:25:08.310Z,85.89
2023-02-04T18:30:29.762Z,86.24
2023-02-04T18:35:32.351Z,86.42
2023-02-04T18:40:35.618Z,86.58
2023-02-04T18:45:40.979Z,86.86
2023-02-04T18:50:44.247Z,87.05
2023-02-04T18:55:53.208Z,87.22
2023-02-04T19:00:59.608Z,86.79
2023-02-04T19:06:04.054Z,86.45
2023-02-04T19:11:40.280Z,86.35
2023-02-04T19:16:43.390Z,86.36
2023-02-04T19:21:46.663Z,86.18
2023-02-04T19:27:34.433Z,86.12
2023-02-04T19:32:45.864Z,86.34
2023-02-04T19:38:26.350Z,86.23
2023-02-04T19:43:37.225Z,86.19
2023-02-04T19:48:40.277Z,86.22
2023-02-04T19:53:43.030Z,85.97
2023-02-04T19:58:46.564Z,85.95
2023-02-04T20:03:51.304Z,86.01
2023-02-04T20:09:02.609Z,85.88
2023-02-04T20:14:46.265Z,85.86
2023-02-04T20:19:51.156Z,85.71
2023-02-04T20:24:56.400Z,85.80
2023-02-04T20:30:19.683Z,85.87
2023-02-04T20:35:23.187Z,85.95
2023-02-04T20:40:34.087Z,86.12
2023-02-04T20:45:58.253Z,86.09
2023-02-04T20:51:04.844Z,86.38
2023-02-04T20:56:24.358Z,86.60
2023-02-04T21:01:30.296Z,86.86
2023-02-04T21:06:35.585Z,86.72
2023-02-04T21:11:39.319Z,86.68
2023-02-04T21:16:41.951Z,86.61
2023-02-04T21:21:44.585Z,86.56
2023-02-04T21:26:47.378Z,86.55
2023-02-04T21:31:50.340Z,86.70
2023-02-04T21:36:54.020Z,86.73
2023-02-04T21:42:10.257Z,86.74
2023-02-04T21:47:15.569Z,87.00
2023-02-04T21:52:18.198Z,87.18
2023-02-04T21:57:21.328Z,86.91
2023-02-04T22:02:25.727Z,87.00
2023-02-04T22:07:28.997Z,86.88
2023-02-04T22:12:32.084Z,86.96
2023-02-04T22:17:34.761Z,86.96
2023-02-04T22:22:37.440Z,86.90
2023-02-04T22:27:40.147Z,86.93
2023-02-04T22:32:43.315Z,87.06
2023-02-04T22:37:45.952Z,87.26
2023-02-04T22:42:49.706Z,87.28
2023-02-04T22:47:52.381Z,87.40
2023-02-04T22:52:55.020Z,87.43
2023-02-04T22:57:57.876Z,87.31
2023-02-04T23:03:01.838Z,87.29
2023-02-04T23:08:06.594Z,87.05
2023-02-04T23:13:09.744Z,86.93
2023-02-04T23:18:12.474Z,87.06
2023-02-04T23:23:17.571Z,87.03
2023-02-04T23:28:20.165Z,87.18
2023-02-04T23:33:22.973Z,87.25
2023-02-04T23:38:26.618Z,87.46
2023-02-04T23:43:29.294Z,87.77
2023-02-04T23:48:31.884Z,88.10
2023-02-04T23:53:34.563Z,88.10
2023-02-04T23:58:37.167Z,88.07
